Time;durP1;ratioP1;P1;durP2;ratioP2;P2;SDS_P1;SDS_P2;PMS_P1;PMS_P2;Temp;Humidity;BMP_temperature;BMP_pressure;BME280_temperature;BME280_humidity;BME280_pressure;Samples;Min_cycle;Max_cycle;Signal;HPM_P1;HPM_P2
2024/03/30 00:00:53;;;;;;;1.60;1.50;;;;;;;;;;4969655;28;25064;-78
2024/03/30 00:03:19;;;;;;;3.53;1.90;;;;;;;;;;4963443;28;25052;-77
2024/03/30 00:05:46;;;;;;;3.20;1.90;;;;;;;;;;4972048;28;25094;-77
2024/03/30 00:08:13;;;;;;;2.75;2.30;;;;;;;;;;4962461;28;25089;-76
2024/03/30 00:10:39;;;;;;;2.17;1.65;;;;;;;;;;4972030;28;25142;-77
2024/03/30 00:13:06;;;;;;;1.95;1.73;;;;;;;;;;4965217;28;25055;-76
2024/03/30 00:15:32;;;;;;;3.72;2.03;;;;;;;;;;4970634;28;25004;-76
2024/03/30 00:18:02;;;;;;;6.05;1.90;;;;;;;;;;4971622;28;25069;-79
2024/03/30 00:20:28;;;;;;;2.08;1.88;;;;;;;;;;4972612;28;25066;-78
2024/03/30 00:22:54;;;;;;;1.70;1.60;;;;;;;;;;4971848;28;25134;-77
2024/03/30 00:25:21;;;;;;;1.73;1.63;;;;;;;;;;4975870;28;25051;-78
2024/03/30 00:27:47;;;;;;;3.72;1.70;;;;;;;;;;4980195;28;25050;-78
2024/03/30 00:30:13;;;;;;;1.73;1.63;;;;;;;;;;4969055;28;25055;-76
2024/03/30 00:32:39;;;;;;;1.98;1.45;;;;;;;;;;4975897;28;25154;-76
2024/03/30 00:35:05;;;;;;;2.53;1.70;;;;;;;;;;4971214;28;25063;-77
2024/03/30 00:37:31;;;;;;;1.80;1.70;;;;;;;;;;4962181;28;25078;-77
2024/03/30 00:40:01;;;;;;;4.03;1.70;;;;;;;;;;4971021;28;25095;-77
2024/03/30 00:42:27;;;;;;;1.90;1.80;;;;;;;;;;4969309;28;25142;-77
2024/03/30 00:44:53;;;;;;;2.53;2.10;;;;;;;;;;4965061;28;25082;-76
2024/03/30 00:47:19;;;;;;;1.88;1.77;;;;;;;;;;4971227;28;25090;-77
2024/03/30 00:49:45;;;;;;;2.33;1.80;;;;;;;;;;4966062;28;25084;-77
2024/03/30 00:52:11;;;;;;;2.15;2.05;;;;;;;;;;4962559;28;25053;-77
2024/03/30 00:54:37;;;;;;;2.35;2.10;;;;;;;;;;4977531;28;25104;-79
2024/03/30 00:57:03;;;;;;;1.90;1.80;;;;;;;;;;4992554;28;25066;-79
2024/03/30 00:59:29;;;;;;;2.00;1.83;;;;;;;;;;4989265;28;25108;-80
2024/03/30 01:01:55;;;;;;;2.00;1.90;;;;;;;;;;4987378;28;25143;-79
2024/03/30 01:04:21;;;;;;;2.47;1.98;;;;;;;;;;4959958;28;25066;-78
2024/03/30 01:06:47;;;;;;;1.95;1.85;;;;;;;;;;4967897;28;25045;-78
2024/03/30 01:09:13;;;;;;;3.13;2.10;;;;;;;;;;4960143;28;25076;-77
2024/03/30 01:11:39;;;;;;;2.08;1.98;;;;;;;;;;4972097;28;25124;-80
2024/03/30 01:14:06;;;;;;;2.00;1.90;;;;;;;;;;4965959;28;25069;-77
2024/03/30 01:16:32;;;;;;;2.40;2.20;;;;;;;;;;4975758;28;25098;-78
2024/03/30 01:18:58;;;;;;;2.25;2.15;;;;;;;;;;4967730;28;25171;-77
2024/03/30 01:21:24;;;;;;;2.63;1.83;;;;;;;;;;4962958;28;25148;-79
2024/03/30 01:23:51;;;;;;;2.00;1.90;;;;;;;;;;4971731;28;25087;-80
2024/03/30 01:26:20;;;;;;;3.72;2.25;;;;;;;;;;4983106;28;25059;-77
2024/03/30 01:28:46;;;;;;;2.85;2.00;;;;;;;;;;4967039;28;25093;-78
2024/03/30 01:31:13;;;;;;;2.75;2.08;;;;;;;;;;4967343;28;25094;-77
2024/03/30 01:33:39;;;;;;;2.45;2.08;;;;;;;;;;4976605;28;25055;-78
2024/03/30 01:36:06;;;;;;;3.08;2.20;;;;;;;;;;4972154;28;25070;-79
2024/03/30 01:38:32;;;;;;;2.30;2.10;;;;;;;;;;4986086;28;25079;-78
2024/03/30 01:40:58;;;;;;;3.00;1.90;;;;;;;;;;4985242;28;25170;-77
2024/03/30 01:43:24;;;;;;;2.25;2.03;;;;;;;;;;4980228;28;25085;-77
2024/03/30 01:45:51;;;;;;;2.53;2.33;;;;;;;;;;4982417;28;25065;-78
2024/03/30 01:48:18;;;;;;;2.10;2.00;;;;;;;;;;4970105;28;25250;-76
2024/03/30 01:50:44;;;;;;;2.13;1.92;;;;;;;;;;4964146;28;25077;-77
2024/03/30 01:53:12;;;;;;;2.55;2.30;;;;;;;;;;4967687;28;25139;-79
2024/03/30 01:55:38;;;;;;;2.00;1.90;;;;;;;;;;4970184;28;25053;-76
2024/03/30 01:58:05;;;;;;;2.28;2.08;;;;;;;;;;4975912;28;25075;-78
2024/03/30 02:00:31;;;;;;;2.35;2.20;;;;;;;;;;4972459;28;25106;-78
2024/03/30 02:02:59;;;;;;;4.47;2.10;;;;;;;;;;4973754;28;25056;-78
2024/03/30 02:05:25;;;;;;;3.63;2.33;;;;;;;;;;4975251;28;25063;-80
2024/03/30 02:07:51;;;;;;;3.38;2.00;;;;;;;;;;4966919;28;25082;-78
2024/03/30 02:10:17;;;;;;;2.10;2.00;;;;;;;;;;4969222;28;25064;-78
2024/03/30 02:12:43;;;;;;;3.85;2.45;;;;;;;;;;4966711;28;25060;-77
2024/03/30 02:15:09;;;;;;;3.33;2.53;;;;;;;;;;4969942;28;25057;-78
2024/03/30 02:17:35;;;;;;;2.22;2.13;;;;;;;;;;4969778;28;25064;-78
2024/03/30 02:20:02;;;;;;;3.15;2.22;;;;;;;;;;4980081;28;25147;-79
2024/03/30 02:22:28;;;;;;;2.75;2.55;;;;;;;;;;4962454;28;25062;-78
2024/03/30 02:24:54;;;;;;;3.13;2.30;;;;;;;;;;4960242;28;25090;-79
2024/03/30 02:27:20;;;;;;;2.38;2.20;;;;;;;;;;4958534;28;25067;-77
2024/03/30 02:29:49;;;;;;;2.75;2.53;;;;;;;;;;4965428;28;25060;-77
2024/03/30 02:32:16;;;;;;;2.67;2.42;;;;;;;;;;4962513;28;25068;-78
2024/03/30 02:34:42;;;;;;;2.40;2.20;;;;;;;;;;4962976;28;25085;-76
2024/03/30 02:37:09;;;;;;;2.55;2.30;;;;;;;;;;4972324;28;25052;-78
2024/03/30 02:39:34;;;;;;;4.03;2.70;;;;;;;;;;4978846;28;25095;-78
2024/03/30 02:42:00;;;;;;;2.10;2.00;;;;;;;;;;4966662;28;25105;-77
2024/03/30 02:44:26;;;;;;;2.70;2.47;;;;;;;;;;4977288;28;25060;-77
2024/03/30 02:46:52;;;;;;;2.72;2.47;;;;;;;;;;4970441;28;25068;-78
2024/03/30 02:49:18;;;;;;;2.30;2.10;;;;;;;;;;4971096;28;25143;-78
2024/03/30 02:51:44;;;;;;;2.60;2.40;;;;;;;;;;4968795;28;25076;-78
2024/03/30 02:54:10;;;;;;;2.20;2.10;;;;;;;;;;4976187;28;25063;-78
2024/03/30 02:56:36;;;;;;;2.50;2.40;;;;;;;;;;4973011;28;25078;-76
2024/03/30 02:59:02;;;;;;;2.58;2.38;;;;;;;;;;4963105;28;25129;-77
2024/03/30 03:01:28;;;;;;;3.08;2.58;;;;;;;;;;4963406;28;25061;-76
2024/03/30 03:03:54;;;;;;;2.83;2.55;;;;;;;;;;4962537;28;25054;-78
2024/03/30 03:06:20;;;;;;;2.75;2.55;;;;;;;;;;4969634;28;25054;-77
2024/03/30 03:08:46;;;;;;;2.50;2.40;;;;;;;;;;4963789;28;25159;-78
2024/03/30 03:11:12;;;;;;;2.78;2.60;;;;;;;;;;4961277;28;25067;-76
2024/03/30 03:13:38;;;;;;;3.42;2.42;;;;;;;;;;4965898;28;25062;-78
2024/03/30 03:16:05;;;;;;;2.70;2.50;;;;;;;;;;4970290;28;25136;-77
2024/03/30 03:18:31;;;;;;;3.83;2.50;;;;;;;;;;4964307;28;25092;-78
2024/03/30 03:20:57;;;;;;;2.80;2.60;;;;;;;;;;4965272;28;25058;-77
2024/03/30 03:23:27;;;;;;;5.18;2.88;;;;;;;;;;4965008;28;25060;-76
2024/03/30 03:25:53;;;;;;;4.57;3.03;;;;;;;;;;4969288;28;25064;-76
2024/03/30 03:28:19;;;;;;;2.72;2.63;;;;;;;;;;4960486;28;25083;-77
2024/03/30 03:30:46;;;;;;;2.60;2.50;;;;;;;;;;4959462;28;25094;-77
2024/03/30 03:33:13;;;;;;;3.35;2.80;;;;;;;;;;4960414;28;25131;-77
2024/03/30 03:35:39;;;;;;;3.85;3.53;;;;;;;;;;4968286;28;25072;-77
2024/03/30 03:38:05;;;;;;;3.72;3.35;;;;;;;;;;4962967;28;25073;-77
2024/03/30 03:40:32;;;;;;;5.13;4.10;;;;;;;;;;4969255;28;25045;-77
2024/03/30 03:42:58;;;;;;;3.03;2.90;;;;;;;;;;4964490;28;25075;-76
2024/03/30 03:45:24;;;;;;;3.30;3.10;;;;;;;;;;4961904;28;25089;-77
2024/03/30 03:47:50;;;;;;;3.88;3.13;;;;;;;;;;4961538;28;25056;-75
2024/03/30 03:50:16;;;;;;;4.63;2.97;;;;;;;;;;4967379;28;25148;-75
2024/03/30 03:52:42;;;;;;;2.75;2.65;;;;;;;;;;4968480;28;25136;-77
2024/03/30 03:55:08;;;;;;;3.50;2.85;;;;;;;;;;4963364;28;25064;-75
2024/03/30 03:57:34;;;;;;;3.28;2.97;;;;;;;;;;4959745;28;25181;-76
2024/03/30 04:00:00;;;;;;;4.40;2.70;;;;;;;;;;4965539;28;25075;-76
2024/03/30 04:02:26;;;;;;;3.33;3.13;;;;;;;;;;4950324;28;25144;-76
2024/03/30 04:04:52;;;;;;;3.03;2.83;;;;;;;;;;4964927;28;25060;-77
2024/03/30 04:07:17;;;;;;;3.00;2.80;;;;;;;;;;4966627;28;25141;-76
2024/03/30 04:09:44;;;;;;;3.05;2.75;;;;;;;;;;4962379;28;25077;-77
2024/03/30 04:12:10;;;;;;;4.78;3.08;;;;;;;;;;4962974;28;25061;-78
2024/03/30 04:14:36;;;;;;;4.40;3.25;;;;;;;;;;4973794;28;25057;-76
2024/03/30 04:17:02;;;;;;;3.22;2.92;;;;;;;;;;4979278;28;25075;-77
2024/03/30 04:19:28;;;;;;;2.63;2.42;;;;;;;;;;4997551;28;25067;-76
2024/03/30 04:21:56;;;;;;;2.72;2.53;;;;;;;;;;4981734;28;25097;-77
2024/03/30 04:24:22;;;;;;;2.78;2.58;;;;;;;;;;4974968;28;25088;-76
2024/03/30 04:26:48;;;;;;;2.75;2.55;;;;;;;;;;4972681;28;25064;-77
2024/03/30 04:29:14;;;;;;;2.70;2.53;;;;;;;;;;4965601;28;25069;-76
2024/03/30 04:31:40;;;;;;;2.88;2.67;;;;;;;;;;4971295;28;25104;-77
2024/03/30 04:34:06;;;;;;;3.58;3.38;;;;;;;;;;4967266;28;25102;-76
2024/03/30 04:36:32;;;;;;;3.00;2.80;;;;;;;;;;4971481;28;25075;-76
2024/03/30 04:38:58;;;;;;;3.03;2.80;;;;;;;;;;4971298;28;25094;-78
2024/03/30 04:41:24;;;;;;;2.95;2.85;;;;;;;;;;4973148;28;25072;-77
2024/03/30 04:43:50;;;;;;;3.35;3.15;;;;;;;;;;4967769;28;25072;-78
2024/03/30 04:46:16;;;;;;;2.90;2.70;;;;;;;;;;4975377;28;25061;-77
2024/03/30 04:48:43;;;;;;;3.65;3.40;;;;;;;;;;4972719;28;25145;-76
2024/03/30 04:51:09;;;;;;;3.58;3.05;;;;;;;;;;4968967;28;25064;-79
2024/03/30 04:53:35;;;;;;;3.25;2.97;;;;;;;;;;4977079;28;25115;-77
2024/03/30 04:56:04;;;;;;;3.15;2.92;;;;;;;;;;4977003;28;25065;-77
2024/03/30 04:58:32;;;;;;;2.30;2.20;;;;;;;;;;4971863;28;25073;-78
2024/03/30 05:01:03;;;;;;;2.28;2.17;;;;;;;;;;4969981;28;25055;-78
2024/03/30 05:03:28;;;;;;;3.13;2.20;;;;;;;;;;4970890;28;25064;-77
2024/03/30 05:05:55;;;;;;;2.55;2.35;;;;;;;;;;4968382;28;25069;-76
2024/03/30 05:08:21;;;;;;;2.60;2.40;;;;;;;;;;4968212;28;25059;-77
2024/03/30 05:10:47;;;;;;;2.60;2.40;;;;;;;;;;4967538;28;25073;-77
2024/03/30 05:13:13;;;;;;;2.53;2.33;;;;;;;;;;4971626;28;25065;-77
2024/03/30 05:15:40;;;;;;;2.28;2.17;;;;;;;;;;4974812;28;25056;-76
2024/03/30 05:18:07;;;;;;;2.55;2.35;;;;;;;;;;4978208;28;25060;-79
2024/03/30 05:20:53;;;;;;;2.10;2.00;;;;;;;;;;4972867;28;25079;-77
2024/03/30 05:23:26;;;;;;;2.40;2.28;;;;;;;;;;4970025;28;25158;-77
2024/03/30 05:25:53;;;;;;;2.50;2.28;;;;;;;;;;4975066;28;25078;-77
2024/03/30 05:28:20;;;;;;;2.10;2.00;;;;;;;;;;4982988;28;25077;-78
2024/03/30 05:30:50;;;;;;;2.10;2.00;;;;;;;;;;4977525;28;25060;-77
2024/03/30 05:33:16;;;;;;;2.42;1.90;;;;;;;;;;4975948;28;25077;-75
2024/03/30 05:35:42;;;;;;;2.20;2.10;;;;;;;;;;4980985;28;25076;-77
2024/03/30 05:38:08;;;;;;;2.10;2.00;;;;;;;;;;4991144;28;25067;-75
2024/03/30 05:40:35;;;;;;;2.90;2.65;;;;;;;;;;4979238;28;25092;-77
2024/03/30 05:43:01;;;;;;;3.70;3.40;;;;;;;;;;4986157;28;25079;-77
2024/03/30 05:45:28;;;;;;;3.90;3.58;;;;;;;;;;4982453;28;25086;-77
2024/03/30 05:47:55;;;;;;;3.60;2.67;;;;;;;;;;4982276;28;25081;-77
2024/03/30 05:50:21;;;;;;;2.88;2.78;;;;;;;;;;4981783;28;25072;-79
2024/03/30 05:52:48;;;;;;;2.80;2.70;;;;;;;;;;4993702;28;25068;-75
2024/03/30 05:55:14;;;;;;;4.60;3.72;;;;;;;;;;4983069;28;25061;-74
2024/03/30 05:57:40;;;;;;;5.30;5.00;;;;;;;;;;4977532;28;25063;-75
2024/03/30 06:00:10;;;;;;;5.38;5.07;;;;;;;;;;4970204;28;25051;-74
2024/03/30 06:02:46;;;;;;;6.05;4.22;;;;;;;;;;4988589;28;25114;-76
2024/03/30 06:05:13;;;;;;;2.85;2.65;;;;;;;;;;4979991;28;25116;-76
2024/03/30 06:07:39;;;;;;;3.03;2.75;;;;;;;;;;4985942;28;25125;-75
2024/03/30 06:10:07;;;;;;;3.92;3.03;;;;;;;;;;4977993;28;25096;-74
2024/03/30 06:12:33;;;;;;;2.50;1.95;;;;;;;;;;4975629;28;25079;-74
2024/03/30 06:14:59;;;;;;;4.50;2.20;;;;;;;;;;4975620;28;25151;-74
2024/03/30 06:17:25;;;;;;;2.47;2.28;;;;;;;;;;4967689;28;25071;-75
2024/03/30 06:19:51;;;;;;;2.97;2.78;;;;;;;;;;4972610;28;25094;-76
2024/03/30 06:22:17;;;;;;;3.38;2.50;;;;;;;;;;4972222;28;25131;-74
2024/03/30 06:24:43;;;;;;;3.95;3.65;;;;;;;;;;4973091;28;25064;-76
2024/03/30 06:27:10;;;;;;;5.40;4.93;;;;;;;;;;4972351;28;25108;-76
2024/03/30 06:29:37;;;;;;;5.13;4.65;;;;;;;;;;4967674;28;25099;-76
2024/03/30 06:32:04;;;;;;;5.15;4.75;;;;;;;;;;4966000;28;25056;-75
2024/03/30 06:34:30;;;;;;;4.70;4.30;;;;;;;;;;4967087;28;25109;-77
2024/03/30 06:36:56;;;;;;;4.95;4.35;;;;;;;;;;4972678;28;25065;-76
2024/03/30 06:39:22;;;;;;;4.80;4.40;;;;;;;;;;4970298;28;25157;-75
2024/03/30 06:44:33;;;;;;;4.80;4.32;;;;;;;;;;4965272;28;25072;-76
2024/03/30 06:46:59;;;;;;;4.45;4.00;;;;;;;;;;4968918;28;25059;-78
2024/03/30 06:49:25;;;;;;;4.40;4.00;;;;;;;;;;4966231;28;25110;-75
2024/03/30 06:51:51;;;;;;;3.50;3.30;;;;;;;;;;4983200;28;25071;-77
2024/03/30 06:54:17;;;;;;;3.50;3.28;;;;;;;;;;4977088;28;25079;-75
2024/03/30 06:56:43;;;;;;;3.10;2.95;;;;;;;;;;4972295;28;25091;-76
2024/03/30 06:59:09;;;;;;;3.63;2.50;;;;;;;;;;4968513;28;25089;-74
2024/03/30 07:01:35;;;;;;;2.72;2.63;;;;;;;;;;4967483;28;25052;-76
2024/03/30 07:04:02;;;;;;;3.30;3.10;;;;;;;;;;4968785;28;25047;-75
2024/03/30 07:06:28;;;;;;;3.22;2.92;;;;;;;;;;4959212;28;25063;-75
2024/03/30 07:08:57;;;;;;;3.05;2.85;;;;;;;;;;4966331;28;25081;-77
2024/03/30 07:11:23;;;;;;;3.20;2.95;;;;;;;;;;4978337;28;25167;-76
2024/03/30 07:13:49;;;;;;;2.90;2.65;;;;;;;;;;4967764;28;25146;-76
2024/03/30 07:16:15;;;;;;;2.63;2.42;;;;;;;;;;4971726;28;25079;-76
2024/03/30 07:18:43;;;;;;;3.17;2.83;;;;;;;;;;4964234;28;25060;-73
2024/03/30 07:21:09;;;;;;;2.80;2.60;;;;;;;;;;4970644;28;25064;-74
2024/03/30 07:23:35;;;;;;;3.40;2.25;;;;;;;;;;4960998;28;25097;-75
2024/03/30 07:26:05;;;;;;;3.58;2.17;;;;;;;;;;4970227;28;25049;-77
2024/03/30 07:28:31;;;;;;;3.15;2.08;;;;;;;;;;4965778;28;25088;-76
2024/03/30 07:31:03;;;;;;;3.95;2.58;;;;;;;;;;4962042;28;25090;-74
2024/03/30 07:33:29;;;;;;;5.05;3.25;;;;;;;;;;4962935;28;25067;-75
2024/03/30 07:35:58;;;;;;;4.20;3.05;;;;;;;;;;4975509;28;25126;-74
2024/03/30 07:38:27;;;;;;;4.65;3.00;;;;;;;;;;4970821;28;25064;-75
2024/03/30 07:40:53;;;;;;;3.28;2.97;;;;;;;;;;4968659;28;25070;-75
2024/03/30 07:43:19;;;;;;;3.10;2.90;;;;;;;;;;4971404;28;25044;-76
2024/03/30 07:45:45;;;;;;;3.85;3.53;;;;;;;;;;4966018;28;25166;-73
2024/03/30 07:48:11;;;;;;;3.50;3.25;;;;;;;;;;4967079;28;25063;-75
2024/03/30 07:50:38;;;;;;;3.17;2.90;;;;;;;;;;4969999;28;25077;-74
2024/03/30 07:53:04;;;;;;;3.35;3.05;;;;;;;;;;4967341;28;25064;-74
2024/03/30 07:55:30;;;;;;;2.80;2.60;;;;;;;;;;4965813;28;25063;-74
2024/03/30 07:57:56;;;;;;;3.08;2.88;;;;;;;;;;4965224;28;25109;-74
2024/03/30 08:00:23;;;;;;;4.72;3.13;;;;;;;;;;4969431;28;25087;-73
2024/03/30 08:02:49;;;;;;;6.20;2.70;;;;;;;;;;4967381;28;25067;-76
2024/03/30 08:05:16;;;;;;;3.35;2.97;;;;;;;;;;4969138;28;25072;-75
2024/03/30 08:07:42;;;;;;;3.42;2.85;;;;;;;;;;4966863;28;25156;-75
2024/03/30 08:10:08;;;;;;;3.22;3.03;;;;;;;;;;4963898;28;25054;-75
2024/03/30 08:12:34;;;;;;;3.00;2.70;;;;;;;;;;4958814;28;25073;-74
2024/03/30 08:15:00;;;;;;;4.20;3.90;;;;;;;;;;4960033;28;25070;-74
2024/03/30 08:17:26;;;;;;;3.22;2.92;;;;;;;;;;4968501;28;25089;-74
2024/03/30 08:19:52;;;;;;;4.18;3.30;;;;;;;;;;4960645;28;25102;-74
2024/03/30 08:22:18;;;;;;;7.13;3.70;;;;;;;;;;4968974;28;25166;-73
2024/03/30 08:24:44;;;;;;;5.10;3.83;;;;;;;;;;4981592;28;25061;-75
2024/03/30 08:27:09;;;;;;;3.80;3.33;;;;;;;;;;4974542;28;25170;-75
2024/03/30 08:29:35;;;;;;;5.65;3.75;;;;;;;;;;4965793;28;25078;-74
2024/03/30 08:32:01;;;;;;;5.30;3.80;;;;;;;;;;4973119;28;25102;-74
2024/03/30 08:34:27;;;;;;;5.30;3.78;;;;;;;;;;4974136;28;25065;-73
2024/03/30 08:37:00;;;;;;;4.55;3.70;;;;;;;;;;4984683;28;25072;-73
2024/03/30 08:39:26;;;;;;;7.65;2.97;;;;;;;;;;4977521;28;25059;-75
2024/03/30 08:41:51;;;;;;;3.85;3.03;;;;;;;;;;4971283;28;25066;-73
2024/03/30 08:44:17;;;;;;;3.10;2.90;;;;;;;;;;4964996;28;25101;-73
2024/03/30 08:46:43;;;;;;;5.65;3.28;;;;;;;;;;4964733;28;25092;-73
2024/03/30 08:49:09;;;;;;;3.63;3.33;;;;;;;;;;4967298;28;25068;-74
2024/03/30 08:51:36;;;;;;;9.30;3.80;;;;;;;;;;4968600;28;25065;-77
2024/03/30 08:54:02;;;;;;;5.20;3.85;;;;;;;;;;4965336;28;25071;-74
2024/03/30 08:56:29;;;;;;;3.90;3.60;;;;;;;;;;4969542;28;25084;-75
2024/03/30 08:58:55;;;;;;;6.72;5.32;;;;;;;;;;4968090;28;25075;-73
2024/03/30 09:01:21;;;;;;;6.78;5.97;;;;;;;;;;4960923;28;25124;-74
2024/03/30 09:03:47;;;;;;;5.72;4.63;;;;;;;;;;4957892;28;25159;-73
2024/03/30 09:06:13;;;;;;;7.30;5.15;;;;;;;;;;4962974;28;25073;-75
2024/03/30 09:08:40;;;;;;;5.35;4.85;;;;;;;;;;4964385;28;25056;-76
2024/03/30 09:11:06;;;;;;;5.80;5.03;;;;;;;;;;4962599;28;25117;-74
2024/03/30 09:13:32;;;;;;;6.80;6.03;;;;;;;;;;4960564;28;25075;-74
2024/03/30 09:15:58;;;;;;;7.13;6.07;;;;;;;;;;4966892;28;25155;-74
2024/03/30 09:18:24;;;;;;;7.80;7.03;;;;;;;;;;4963876;28;25115;-74
2024/03/30 09:20:50;;;;;;;8.38;6.93;;;;;;;;;;4969854;28;25076;-74
2024/03/30 09:23:16;;;;;;;8.88;7.70;;;;;;;;;;4976239;28;25077;-75
2024/03/30 09:25:42;;;;;;;8.93;7.88;;;;;;;;;;4956060;28;25081;-74
2024/03/30 09:28:08;;;;;;;10.95;8.65;;;;;;;;;;4968485;28;25056;-75
2024/03/30 09:30:35;;;;;;;10.27;9.18;;;;;;;;;;4965393;28;25142;-74
2024/03/30 09:33:01;;;;;;;12.32;10.35;;;;;;;;;;4974671;28;25063;-74
2024/03/30 09:35:27;;;;;;;15.45;10.40;;;;;;;;;;4967734;28;25056;-75
2024/03/30 09:37:53;;;;;;;16.20;11.93;;;;;;;;;;4964669;28;25105;-74
2024/03/30 09:40:19;;;;;;;13.63;11.40;;;;;;;;;;4966976;28;25073;-72
2024/03/30 09:42:47;;;;;;;14.88;11.10;;;;;;;;;;4977331;28;25077;-75
2024/03/30 09:45:13;;;;;;;15.38;11.07;;;;;;;;;;4976397;28;25069;-74
2024/03/30 09:47:40;;;;;;;13.73;10.13;;;;;;;;;;4987164;28;25092;-75
2024/03/30 09:50:07;;;;;;;10.88;9.32;;;;;;;;;;4981086;28;25072;-75
2024/03/30 09:52:34;;;;;;;9.40;8.40;;;;;;;;;;4973948;28;25065;-75
2024/03/30 09:55:04;;;;;;;11.65;9.65;;;;;;;;;;4975113;28;25166;-76
2024/03/30 09:57:31;;;;;;;9.90;7.90;;;;;;;;;;4968171;28;25157;-75
2024/03/30 09:59:58;;;;;;;11.48;8.75;;;;;;;;;;4970693;28;25052;-76
2024/03/30 10:02:24;;;;;;;14.25;10.57;;;;;;;;;;4975869;28;25057;-75
2024/03/30 10:04:50;;;;;;;11.27;9.30;;;;;;;;;;4976409;28;25073;-74
2024/03/30 10:07:20;;;;;;;10.95;9.18;;;;;;;;;;4981187;28;25157;-75
2024/03/30 10:09:46;;;;;;;11.65;9.73;;;;;;;;;;4975478;28;25107;-75
2024/03/30 10:12:18;;;;;;;15.63;10.20;;;;;;;;;;4961894;28;25072;-74
2024/03/30 10:14:44;;;;;;;12.20;8.82;;;;;;;;;;4960584;28;25059;-75
2024/03/30 10:17:11;;;;;;;13.52;10.10;;;;;;;;;;4966901;28;25161;-75
2024/03/30 10:19:38;;;;;;;12.55;9.48;;;;;;;;;;4965272;28;25053;-75
2024/03/30 10:22:05;;;;;;;14.20;11.35;;;;;;;;;;4963818;28;25100;-73
2024/03/30 10:24:31;;;;;;;11.88;9.55;;;;;;;;;;4963850;28;25048;-74
2024/03/30 10:26:57;;;;;;;12.60;9.88;;;;;;;;;;4971533;28;25075;-74
2024/03/30 10:29:23;;;;;;;15.15;9.95;;;;;;;;;;4958113;28;25076;-74
2024/03/30 10:31:50;;;;;;;11.35;10.15;;;;;;;;;;4964331;28;25085;-74
2024/03/30 10:34:16;;;;;;;11.82;9.27;;;;;;;;;;4969342;28;25121;-74
2024/03/30 10:36:42;;;;;;;10.80;8.82;;;;;;;;;;4967368;28;25084;-74
2024/03/30 10:39:08;;;;;;;11.85;9.45;;;;;;;;;;4961980;28;25109;-74
2024/03/30 10:41:34;;;;;;;12.55;8.98;;;;;;;;;;4962708;28;25126;-74
2024/03/30 10:44:00;;;;;;;12.82;8.88;;;;;;;;;;4957454;28;25075;-75
2024/03/30 10:46:27;;;;;;;9.57;8.57;;;;;;;;;;4963831;28;25077;-73
2024/03/30 10:48:54;;;;;;;12.68;9.85;;;;;;;;;;4970517;28;25055;-74
2024/03/30 10:51:20;;;;;;;12.60;10.13;;;;;;;;;;4958826;28;25084;-75
2024/03/30 10:53:50;;;;;;;11.45;10.13;;;;;;;;;;4958297;28;25070;-74
2024/03/30 10:56:16;;;;;;;11.65;10.20;;;;;;;;;;4963208;28;25051;-73
2024/03/30 10:58:43;;;;;;;15.48;12.70;;;;;;;;;;4960808;28;25140;-73
2024/03/30 11:01:09;;;;;;;20.40;12.48;;;;;;;;;;4962330;28;25057;-74
2024/03/30 11:03:35;;;;;;;13.70;11.98;;;;;;;;;;4962834;28;25048;-75
2024/03/30 11:06:02;;;;;;;14.13;12.05;;;;;;;;;;4961159;28;25067;-75
2024/03/30 11:08:28;;;;;;;19.85;13.02;;;;;;;;;;4959835;28;25065;-74
2024/03/30 11:10:55;;;;;;;16.63;13.38;;;;;;;;;;4963097;28;25066;-74
2024/03/30 11:13:21;;;;;;;15.55;13.85;;;;;;;;;;4968421;28;25139;-77
2024/03/30 11:15:49;;;;;;;18.90;16.63;;;;;;;;;;4976738;28;25151;-74
2024/03/30 11:18:19;;;;;;;24.05;17.55;;;;;;;;;;4968617;28;25120;-76
2024/03/30 11:20:49;;;;;;;20.95;18.15;;;;;;;;;;4970632;28;25080;-75
2024/03/30 11:23:22;;;;;;;25.25;19.20;;;;;;;;;;4977858;28;25065;-76
2024/03/30 11:25:50;;;;;;;30.30;23.95;;;;;;;;;;4966994;28;25078;-75
2024/03/30 11:28:27;;;;;;;28.95;22.55;;;;;;;;;;4965650;28;25067;-75
2024/03/30 11:31:10;;;;;;;33.22;25.58;;;;;;;;;;4972746;28;25057;-74
2024/03/30 11:33:44;;;;;;;39.53;29.20;;;;;;;;;;4969587;28;25124;-75
2024/03/30 11:36:13;;;;;;;43.50;30.73;;;;;;;;;;4975782;28;25080;-75
2024/03/30 11:38:40;;;;;;;38.47;29.60;;;;;;;;;;4968102;28;25156;-75
2024/03/30 11:41:07;;;;;;;40.25;30.40;;;;;;;;;;4968088;28;25157;-74
2024/03/30 11:43:42;;;;;;;46.22;31.58;;;;;;;;;;4966672;28;25086;-73
2024/03/30 11:46:09;;;;;;;42.00;32.17;;;;;;;;;;4969316;28;25132;-77
2024/03/30 11:48:35;;;;;;;48.13;30.33;;;;;;;;;;4972529;28;25068;-75
2024/03/30 11:51:01;;;;;;;35.35;28.27;;;;;;;;;;4959092;28;25062;-76
2024/03/30 11:53:36;;;;;;;37.40;29.70;;;;;;;;;;4977705;28;25070;-74
2024/03/30 11:56:02;;;;;;;59.50;29.25;;;;;;;;;;4981239;28;25048;-75
2024/03/30 11:58:32;;;;;;;29.25;22.52;;;;;;;;;;4970344;28;25076;-75
2024/03/30 12:00:59;;;;;;;102.72;28.70;;;;;;;;;;4969286;28;25092;-76
2024/03/30 12:03:25;;;;;;;98.65;28.98;;;;;;;;;;4971479;28;25144;-76
2024/03/30 12:05:53;;;;;;;27.63;21.83;;;;;;;;;;4969836;28;25079;-76
2024/03/30 12:08:22;;;;;;;27.50;22.38;;;;;;;;;;4981119;28;25070;-76
2024/03/30 12:10:55;;;;;;;24.75;20.45;;;;;;;;;;4978014;28;25055;-76
2024/03/30 12:13:25;;;;;;;26.65;19.38;;;;;;;;;;4970621;28;25107;-75
2024/03/30 12:15:51;;;;;;;24.52;18.17;;;;;;;;;;4967206;28;25080;-75
2024/03/30 12:18:18;;;;;;;19.95;16.75;;;;;;;;;;4968992;28;25063;-75
2024/03/30 12:20:44;;;;;;;18.77;15.63;;;;;;;;;;4971118;28;25065;-75
2024/03/30 12:23:12;;;;;;;14.68;13.15;;;;;;;;;;4963658;28;25062;-77
2024/03/30 12:25:42;;;;;;;17.35;13.65;;;;;;;;;;4963553;28;25062;-74
2024/03/30 12:28:09;;;;;;;17.00;13.65;;;;;;;;;;4970569;28;25050;-74
2024/03/30 12:30:44;;;;;;;19.65;14.63;;;;;;;;;;4960568;28;25060;-75
2024/03/30 12:33:10;;;;;;;14.40;11.52;;;;;;;;;;4978179;28;25093;-75
2024/03/30 12:35:36;;;;;;;14.80;12.75;;;;;;;;;;4967267;28;25081;-75
2024/03/30 12:38:03;;;;;;;17.10;12.23;;;;;;;;;;4970590;28;25069;-75
2024/03/30 12:40:36;;;;;;;9.52;8.63;;;;;;;;;;4962966;28;25111;-74
2024/03/30 12:43:02;;;;;;;11.82;8.68;;;;;;;;;;4972733;28;25041;-75
2024/03/30 12:45:29;;;;;;;5.75;5.13;;;;;;;;;;4966398;28;25066;-77
2024/03/30 12:47:55;;;;;;;6.30;5.00;;;;;;;;;;4976832;28;25049;-75
2024/03/30 12:50:24;;;;;;;7.13;6.40;;;;;;;;;;4977270;28;25078;-74
2024/03/30 12:52:51;;;;;;;7.45;6.70;;;;;;;;;;4978290;28;25101;-75
2024/03/30 12:55:17;;;;;;;6.82;5.60;;;;;;;;;;4981873;28;25055;-76
2024/03/30 12:57:45;;;;;;;7.53;5.97;;;;;;;;;;4982091;28;25071;-76
2024/03/30 13:00:15;;;;;;;8.05;5.63;;;;;;;;;;4979418;28;25059;-78
2024/03/30 13:03:00;;;;;;;6.43;5.55;;;;;;;;;;4971868;28;25084;-77
2024/03/30 13:05:31;;;;;;;6.72;6.05;;;;;;;;;;4975339;28;25084;-76
2024/03/30 13:07:57;;;;;;;9.27;6.22;;;;;;;;;;4968696;28;25073;-74
2024/03/30 13:10:24;;;;;;;6.20;5.68;;;;;;;;;;4976336;28;25064;-76
2024/03/30 13:12:50;;;;;;;4.95;4.55;;;;;;;;;;4965829;28;25095;-76
2024/03/30 13:15:18;;;;;;;4.65;4.18;;;;;;;;;;4980407;28;25047;-76
2024/03/30 13:17:44;;;;;;;4.28;3.88;;;;;;;;;;4970697;28;25043;-74
2024/03/30 13:20:13;;;;;;;5.93;4.45;;;;;;;;;;4967153;28;25053;-76
2024/03/30 13:22:42;;;;;;;4.40;4.00;;;;;;;;;;4967004;28;25111;-76
2024/03/30 13:25:10;;;;;;;5.10;4.80;;;;;;;;;;4962672;28;25108;-76
2024/03/30 13:27:36;;;;;;;5.80;5.20;;;;;;;;;;4966147;28;25055;-76
2024/03/30 13:30:02;;;;;;;7.80;7.03;;;;;;;;;;4970349;28;25089;-76
2024/03/30 13:32:28;;;;;;;5.15;4.75;;;;;;;;;;4960276;28;25078;-77
2024/03/30 13:34:55;;;;;;;3.83;3.53;;;;;;;;;;4963648;28;25064;-75
2024/03/30 13:37:21;;;;;;;3.10;2.40;;;;;;;;;;4977005;28;25159;-76
2024/03/30 13:39:47;;;;;;;5.70;4.00;;;;;;;;;;4962271;28;25054;-75
2024/03/30 13:42:13;;;;;;;5.65;5.15;;;;;;;;;;4960242;28;25049;-75
2024/03/30 13:44:39;;;;;;;6.32;5.82;;;;;;;;;;4963644;28;25075;-75
2024/03/30 13:47:05;;;;;;;5.72;5.32;;;;;;;;;;4970501;28;25060;-74
2024/03/30 13:49:31;;;;;;;5.55;4.93;;;;;;;;;;4973809;28;25080;-75
2024/03/30 13:51:57;;;;;;;4.50;4.20;;;;;;;;;;4982070;28;25051;-76
2024/03/30 13:54:23;;;;;;;4.75;4.35;;;;;;;;;;4983094;28;25091;-74
2024/03/30 13:56:55;;;;;;;2.80;2.70;;;;;;;;;;4975787;28;25173;-75
2024/03/30 13:59:22;;;;;;;3.38;3.08;;;;;;;;;;4966988;28;25075;-75
2024/03/30 14:01:48;;;;;;;3.30;3.00;;;;;;;;;;4969384;28;25075;-77
2024/03/30 14:04:14;;;;;;;8.13;3.67;;;;;;;;;;4972280;28;25045;-75
2024/03/30 14:06:40;;;;;;;25.05;6.40;;;;;;;;;;4968807;28;25062;-75
2024/03/30 14:09:08;;;;;;;3.20;3.00;;;;;;;;;;4963766;28;25169;-76
2024/03/30 14:11:34;;;;;;;4.53;3.25;;;;;;;;;;4961795;28;25071;-75
2024/03/30 14:14:00;;;;;;;14.73;3.47;;;;;;;;;;4961853;28;25110;-76
2024/03/30 14:16:26;;;;;;;13.77;4.05;;;;;;;;;;4957877;28;25087;-75
2024/03/30 14:18:51;;;;;;;3.13;2.92;;;;;;;;;;4964839;28;25052;-74
2024/03/30 14:21:17;;;;;;;4.22;3.83;;;;;;;;;;4964957;28;25066;-74
2024/03/30 14:23:43;;;;;;;3.97;3.67;;;;;;;;;;4982348;28;25057;-74
2024/03/30 14:26:09;;;;;;;4.10;3.80;;;;;;;;;;4970522;28;25092;-77
2024/03/30 14:28:35;;;;;;;4.32;3.83;;;;;;;;;;4967329;28;25085;-76
2024/03/30 14:31:01;;;;;;;7.03;3.90;;;;;;;;;;4967093;28;25059;-76
2024/03/30 14:33:27;;;;;;;3.92;3.63;;;;;;;;;;4965144;28;25069;-76
2024/03/30 14:35:53;;;;;;;4.30;3.95;;;;;;;;;;4973258;28;25052;-75
2024/03/30 14:38:19;;;;;;;4.28;3.65;;;;;;;;;;4970047;28;25072;-75